Terminal Aerodrome Forecast
Issued by NWS

Current Version | Previous Version | Graphics & Text | Print | Product List | Glossary On
Versions: 1 2 3 4 5 6 7 8 9 10 11 12 13 14 15 16 17 18 19 20 21 22 23 24 25 26 27 28 29 30 31 32 33 34 35 36 37 38 39 40
284
FTUS41 KRNK 271139
TAFLWB
TAF
KLWB 271139Z 2712/2812 VRB03KT P6SM SCT018 BKN035
      TEMPO 2712/2715 BKN018
     FM271500 25006KT P6SM SCT040
     FM280200 26003KT P6SM FEW004
     FM280600 00000KT 1/4SM FG VV004=

USA.gov is the U.S. government's official web portal to all federal, state and local government web resources and services.